createdAt,value
2022-09-03T00:00:02.525Z,15.61
2022-09-03T00:00:22.597Z,15.58
2022-09-03T00:00:42.643Z,15.58
2022-09-03T00:01:02.711Z,15.6
2022-09-03T00:01:22.820Z,15.58
2022-09-03T00:01:42.904Z,15.58
2022-09-03T00:02:02.934Z,15.57
2022-09-03T00:02:23.000Z,15.56
2022-09-03T00:02:43.072Z,15.56
2022-09-03T00:03:03.160Z,15.56
2022-09-03T00:03:23.120Z,15.53
2022-09-03T00:03:43.175Z,15.54
2022-09-03T00:04:03.258Z,15.51
2022-09-03T00:04:25.986Z,15.53
2022-09-03T00:04:43.376Z,15.5
2022-09-03T00:05:03.410Z,15.5
2022-09-03T00:05:23.499Z,15.48
2022-09-03T00:05:43.542Z,15.5
2022-09-03T00:06:03.587Z,15.48
2022-09-03T00:06:23.667Z,15.5
2022-09-03T00:06:43.711Z,15.47
2022-09-03T00:07:03.793Z,15.44
2022-09-03T00:07:23.841Z,15.44
2022-09-03T00:07:43.898Z,15.43
2022-09-03T00:08:03.959Z,15.43
2022-09-03T00:08:24.136Z,15.4
2022-09-03T00:08:44.088Z,15.38
2022-09-03T00:09:04.162Z,15.37
2022-09-03T00:09:24.194Z,15.36
2022-09-03T00:09:44.281Z,15.34
2022-09-03T00:10:04.306Z,15.33
2022-09-03T00:10:24.372Z,15.31
2022-09-03T00:10:44.437Z,15.29
2022-09-03T00:11:04.502Z,15.27
2022-09-03T00:11:24.564Z,15.25
2022-09-03T00:11:44.625Z,15.22
2022-09-03T00:12:04.699Z,15.19
2022-09-03T00:12:24.744Z,15.17
2022-09-03T00:12:44.795Z,15.14
2022-09-03T00:13:04.847Z,15.16
2022-09-03T00:13:24.927Z,15.17
2022-09-03T00:13:44.969Z,15.14
2022-09-03T00:14:05.046Z,15.13
2022-09-03T00:14:25.098Z,15.11
2022-09-03T00:14:45.154Z,15.09
2022-09-03T00:15:05.214Z,15.09
2022-09-03T00:15:25.281Z,15.09
2022-09-03T00:15:45.376Z,15.05
2022-09-03T00:16:05.454Z,15.03
2022-09-03T00:16:25.516Z,15.03
2022-09-03T00:16:45.491Z,15.02
2022-09-03T00:17:05.563Z,14.98
2022-09-03T00:17:25.686Z,14.96
2022-09-03T00:17:45.676Z,14.93
2022-09-03T00:18:05.771Z,14.93
2022-09-03T00:18:25.839Z,14.9
2022-09-03T00:18:45.878Z,14.88
2022-09-03T00:19:05.926Z,14.88
2022-09-03T00:19:25.984Z,14.83
2022-09-03T00:19:46.082Z,14.85
2022-09-03T00:20:06.104Z,14.82
2022-09-03T00:20:26.162Z,14.8
2022-09-03T00:20:46.223Z,14.79
2022-09-03T00:21:06.287Z,14.79
2022-09-03T00:21:26.338Z,14.75
2022-09-03T00:21:46.408Z,14.75
2022-09-03T00:22:06.459Z,14.72
2022-09-03T00:22:26.535Z,14.72
2022-09-03T00:22:46.581Z,14.71
2022-09-03T00:23:06.638Z,14.68
2022-09-03T00:23:26.702Z,14.68
2022-09-03T00:23:46.770Z,14.69
2022-09-03T00:24:06.832Z,14.68
2022-09-03T00:24:26.885Z,14.69
2022-09-03T00:24:46.955Z,14.69
2022-09-03T00:25:07.009Z,14.65
2022-09-03T00:25:27.044Z,14.64
2022-09-03T00:25:47.118Z,14.62
2022-09-03T00:26:07.175Z,14.64
2022-09-03T00:26:27.246Z,14.61
2022-09-03T00:26:47.288Z,14.59
2022-09-03T00:27:07.370Z,14.55
2022-09-03T00:27:27.415Z,14.55
2022-09-03T00:27:47.511Z,14.53
2022-09-03T00:28:07.549Z,14.53
2022-09-03T00:28:27.609Z,14.51
2022-09-03T00:28:47.667Z,14.49
2022-09-03T00:29:07.736Z,14.47
2022-09-03T00:29:27.783Z,14.47
2022-09-03T00:29:47.832Z,14.44
2022-09-03T00:30:07.901Z,14.45
2022-09-03T00:30:27.966Z,14.4
2022-09-03T00:30:48.107Z,14.4
2022-09-03T00:31:08.128Z,14.38
2022-09-03T00:31:28.196Z,14.38
2022-09-03T00:31:48.219Z,14.34
2022-09-03T00:32:08.255Z,14.34
2022-09-03T00:32:28.303Z,14.32
2022-09-03T00:32:48.373Z,14.31
2022-09-03T00:33:08.436Z,14.31
2022-09-03T00:33:28.512Z,14.3
2022-09-03T00:33:48.546Z,14.27
2022-09-03T00:34:08.638Z,14.25
2022-09-03T00:34:28.678Z,14.27
2022-09-03T00:34:48.747Z,14.24
2022-09-03T00:35:08.793Z,14.21
2022-09-03T00:35:28.848Z,14.2
2022-09-03T00:35:48.900Z,14.17
2022-09-03T00:36:08.986Z,14.17
2022-09-03T00:36:29.034Z,14.17
2022-09-03T00:36:49.087Z,14.19
2022-09-03T00:37:14.325Z,14.14
2022-09-03T00:37:29.215Z,14.13
2022-09-03T00:37:49.261Z,14.14
2022-09-03T00:38:09.331Z,14.16
2022-09-03T00:38:29.392Z,14.13
2022-09-03T00:38:49.477Z,14.11
2022-09-03T00:39:09.498Z,14.11
2022-09-03T00:39:29.667Z,14.13
2022-09-03T00:39:49.742Z,14.09
2022-09-03T00:40:09.673Z,14.09
2022-09-03T00:40:29.745Z,14.09
2022-09-03T00:40:49.823Z,14.07
2022-09-03T00:41:09.866Z,14.04
2022-09-03T00:41:29.918Z,14.04
2022-09-03T00:41:49.944Z,14
2022-09-03T00:42:09.972Z,14.02
2022-09-03T00:42:29.983Z,13.99
2022-09-03T00:42:50.016Z,13.99
2022-09-03T00:43:10.088Z,13.97
2022-09-03T00:43:30.062Z,13.96
2022-09-03T00:43:50.128Z,13.93
2022-09-03T00:44:10.110Z,13.94
2022-09-03T00:44:30.145Z,13.9
2022-09-03T00:44:50.186Z,13.89
2022-09-03T00:45:10.170Z,13.89
2022-09-03T00:45:30.211Z,13.89
2022-09-03T00:45:50.218Z,13.86
2022-09-03T00:46:10.310Z,13.84
2022-09-03T00:46:30.345Z,13.83
2022-09-03T00:46:50.277Z,13.82
2022-09-03T00:47:10.310Z,13.8
2022-09-03T00:47:30.325Z,13.8
2022-09-03T00:47:50.361Z,13.79
2022-09-03T00:48:10.389Z,13.79
2022-09-03T00:48:30.658Z,13.77
2022-09-03T00:48:50.422Z,13.77
2022-09-03T00:49:10.449Z,13.76
2022-09-03T00:49:30.483Z,13.75
2022-09-03T00:49:50.497Z,13.73
2022-09-03T00:50:10.508Z,13.72
2022-09-03T00:50:30.580Z,13.75
2022-09-03T00:50:50.642Z,13.72
2022-09-03T00:51:10.670Z,13.69
2022-09-03T00:51:30.759Z,13.69
2022-09-03T00:51:50.815Z,13.65
2022-09-03T00:52:10.881Z,13.65
2022-09-03T00:52:33.658Z,13.65
2022-09-03T00:52:51.023Z,13.61
2022-09-03T00:53:11.109Z,13.61
2022-09-03T00:53:31.129Z,13.61
2022-09-03T00:53:51.205Z,13.62
2022-09-03T00:54:11.275Z,13.61
2022-09-03T00:54:31.302Z,13.62
2022-09-03T00:54:51.410Z,13.61
2022-09-03T00:55:11.476Z,13.62
2022-09-03T00:55:31.545Z,13.61
2022-09-03T00:55:51.595Z,13.59
2022-09-03T00:56:11.659Z,13.59
2022-09-03T00:56:31.726Z,13.58
2022-09-03T00:56:51.768Z,13.56
2022-09-03T00:57:11.829Z,13.58
2022-09-03T00:57:31.904Z,13.55
2022-09-03T00:57:51.953Z,13.56
2022-09-03T00:58:12.044Z,13.56
2022-09-03T00:58:32.090Z,13.55
2022-09-03T00:58:52.167Z,13.55
2022-09-03T00:59:12.220Z,13.51
2022-09-03T00:59:32.325Z,13.48
2022-09-03T00:59:52.380Z,13.48
2022-09-03T01:00:12.402Z,13.46
2022-09-03T01:00:32.465Z,13.44
2022-09-03T01:00:52.541Z,13.42
2022-09-03T01:01:12.663Z,13.42
2022-09-03T01:01:32.779Z,13.39
2022-09-03T01:01:52.839Z,13.39
2022-09-03T01:02:13.016Z,13.39
2022-09-03T01:02:33.064Z,13.38
2022-09-03T01:02:52.992Z,13.37
2022-09-03T01:03:12.994Z,13.34
2022-09-03T01:03:33.057Z,13.33
2022-09-03T01:03:53.105Z,13.33
2022-09-03T01:04:13.158Z,13.33
2022-09-03T01:04:33.230Z,13.25
2022-09-03T01:04:53.283Z,13.28
2022-09-03T01:05:13.371Z,13.27
2022-09-03T01:05:33.444Z,13.25
2022-09-03T01:05:53.488Z,13.27
2022-09-03T01:06:13.558Z,13.25
2022-09-03T01:06:33.617Z,13.21
2022-09-03T01:06:53.678Z,13.22
2022-09-03T01:07:13.747Z,13.19
2022-09-03T01:07:33.811Z,13.17
2022-09-03T01:07:53.854Z,13.15
2022-09-03T01:08:13.864Z,13.15
2022-09-03T01:08:33.883Z,13.14
2022-09-03T01:08:53.919Z,13.13
2022-09-03T01:09:13.928Z,13.08
2022-09-03T01:09:33.939Z,13.08
2022-09-03T01:09:53.971Z,13.08
2022-09-03T01:10:14.005Z,13.06
2022-09-03T01:10:34.011Z,13.07
2022-09-03T01:10:54.046Z,13.06
2022-09-03T01:11:14.086Z,13.06
2022-09-03T01:11:34.094Z,13.04
2022-09-03T01:11:54.114Z,13.03
2022-09-03T01:12:14.161Z,13.03
2022-09-03T01:12:34.152Z,13.01
2022-09-03T01:12:54.173Z,13.01
2022-09-03T01:13:14.189Z,13
2022-09-03T01:13:34.216Z,12.98
2022-09-03T01:13:54.237Z,12.96
2022-09-03T01:14:14.267Z,12.97
2022-09-03T01:14:34.338Z,12.94
2022-09-03T01:14:54.319Z,12.96
2022-09-03T01:15:14.365Z,12.94
2022-09-03T01:15:34.395Z,12.9
2022-09-03T01:15:54.495Z,12.9
2022-09-03T01:16:14.490Z,12.88
2022-09-03T01:16:34.436Z,12.87
2022-09-03T01:16:54.449Z,12.87
2022-09-03T01:17:14.475Z,12.83
2022-09-03T01:17:34.491Z,12.8
2022-09-03T01:17:54.513Z,12.8
2022-09-03T01:18:14.584Z,12.76
2022-09-03T01:18:34.572Z,12.77
2022-09-03T01:18:54.629Z,12.79
2022-09-03T01:19:14.717Z,12.77
2022-09-03T01:19:34.776Z,12.8
2022-09-03T01:19:54.807Z,12.76
2022-09-03T01:20:14.862Z,12.76
2022-09-03T01:20:34.920Z,12.75
2022-09-03T01:20:54.987Z,12.76
2022-09-03T01:21:15.095Z,12.72
2022-09-03T01:21:35.149Z,12.7
2022-09-03T01:21:55.201Z,12.69
2022-09-03T01:22:15.254Z,12.64
2022-09-03T01:22:35.314Z,12.62
2022-09-03T01:22:55.398Z,12.62
2022-09-03T01:23:15.431Z,12.63
2022-09-03T01:23:35.528Z,12.6
2022-09-03T01:23:55.561Z,12.56
2022-09-03T01:24:15.632Z,12.56
2022-09-03T01:24:35.660Z,12.52
2022-09-03T01:24:55.747Z,12.46
2022-09-03T01:25:15.812Z,12.45
2022-09-03T01:25:35.855Z,12.39
2022-09-03T01:25:55.909Z,12.36
2022-09-03T01:26:15.966Z,12.33
2022-09-03T01:26:36.034Z,12.33
2022-09-03T01:26:56.130Z,12.32
2022-09-03T01:27:16.171Z,12.31
2022-09-03T01:27:36.214Z,12.25
2022-09-03T01:27:56.269Z,12.24
2022-09-03T01:28:16.345Z,12.22
2022-09-03T01:28:36.433Z,12.21
2022-09-03T01:28:56.458Z,12.18
2022-09-03T01:29:16.517Z,12.14
2022-09-03T01:29:36.577Z,12.11
2022-09-03T01:29:56.651Z,12.11
2022-09-03T01:30:16.706Z,12.08
2022-09-03T01:30:36.750Z,12.06
2022-09-03T01:30:56.890Z,12.06
2022-09-03T01:31:16.967Z,12.01
2022-09-03T01:31:36.939Z,12.02
2022-09-03T01:31:56.989Z,12
2022-09-03T01:32:17.044Z,11.98
2022-09-03T01:32:37.093Z,11.94
2022-09-03T01:32:57.162Z,11.94
2022-09-03T01:33:17.244Z,11.91
2022-09-03T01:33:37.351Z,11.91
2022-09-03T01:33:57.366Z,11.88
2022-09-03T01:34:17.429Z,11.87
2022-09-03T01:34:37.479Z,11.84
2022-09-03T01:34:57.559Z,11.81
2022-09-03T01:35:17.576Z,11.82
2022-09-03T01:35:37.652Z,11.8
2022-09-03T01:35:57.702Z,11.76
2022-09-03T01:36:17.776Z,11.76
2022-09-03T01:36:37.840Z,11.71
2022-09-03T01:36:57.897Z,11.69
2022-09-03T01:37:17.952Z,11.7
2022-09-03T01:37:38.032Z,11.69
2022-09-03T01:37:58.075Z,11.69
2022-09-03T01:38:18.116Z,11.64
2022-09-03T01:38:38.190Z,11.63
2022-09-03T01:38:58.272Z,11.61
2022-09-03T01:39:18.380Z,11.6
2022-09-03T01:39:38.413Z,11.59
2022-09-03T01:39:58.528Z,11.59
2022-09-03T01:40:18.541Z,11.53
2022-09-03T01:40:38.561Z,11.57
2022-09-03T01:40:58.629Z,11.54
2022-09-03T01:41:18.709Z,11.53
2022-09-03T01:41:38.767Z,11.52
2022-09-03T01:41:58.813Z,11.5
2022-09-03T01:42:20.854Z,11.44
2022-09-03T01:42:38.912Z,11.44
2022-09-03T01:42:58.970Z,11.42
2022-09-03T01:43:19.052Z,11.4
2022-09-03T01:43:42.155Z,11.39
2022-09-03T01:43:59.168Z,11.36
2022-09-03T01:44:19.221Z,11.33
2022-09-03T01:44:39.308Z,11.32
2022-09-03T01:44:59.344Z,11.32
2022-09-03T01:45:19.396Z,11.29
2022-09-03T01:45:39.442Z,11.26
2022-09-03T01:45:59.529Z,11.23
2022-09-03T01:46:19.598Z,11.23
2022-09-03T01:46:39.778Z,11.23
2022-09-03T01:46:59.682Z,11.22
2022-09-03T01:47:19.762Z,11.19
2022-09-03T01:47:39.802Z,11.19
2022-09-03T01:47:59.875Z,11.15
2022-09-03T01:48:20.118Z,11.13
2022-09-03T01:48:39.982Z,11.12
2022-09-03T01:49:00.029Z,11.12
2022-09-03T01:49:20.103Z,11.08
2022-09-03T01:49:40.156Z,11.08
2022-09-03T01:50:00.227Z,11.08
2022-09-03T01:50:20.295Z,11.09
2022-09-03T01:50:40.335Z,11.08
2022-09-03T01:51:00.486Z,11.05
2022-09-03T01:51:20.462Z,11.05
2022-09-03T01:51:40.527Z,11.04
2022-09-03T01:52:00.617Z,11.04
2022-09-03T01:52:20.667Z,11.01
2022-09-03T01:52:40.704Z,10.99
2022-09-03T01:53:00.761Z,10.99
2022-09-03T01:53:20.806Z,10.95
2022-09-03T01:53:40.895Z,10.95
2022-09-03T01:54:00.953Z,10.94
2022-09-03T01:54:21.734Z,10.95
2022-09-03T01:54:41.099Z,10.92
2022-09-03T01:55:01.157Z,10.92
2022-09-03T01:55:21.180Z,10.9
2022-09-03T01:55:41.245Z,10.9
2022-09-03T01:56:01.304Z,10.88
2022-09-03T01:56:21.357Z,10.86
2022-09-03T01:56:41.419Z,10.85
2022-09-03T01:57:01.496Z,10.84
2022-09-03T01:57:34.669Z,10.82
2022-09-03T01:57:42.000Z,10.79
2022-09-03T01:58:01.667Z,10.78
2022-09-03T01:58:21.800Z,10.76
2022-09-03T01:58:41.772Z,10.74
2022-09-03T01:59:01.848Z,10.74
2022-09-03T01:59:21.921Z,10.74
2022-09-03T01:59:41.975Z,10.71
2022-09-03T02:00:02.018Z,10.72
2022-09-03T02:00:22.075Z,10.72
2022-09-03T02:00:42.163Z,10.68
2022-09-03T02:01:02.202Z,10.68
2022-09-03T02:01:22.319Z,10.64
2022-09-03T02:01:42.402Z,10.64
2022-09-03T02:02:02.491Z,10.63
2022-09-03T02:02:22.525Z,10.63
2022-09-03T02:02:42.518Z,10.6
2022-09-03T02:03:02.657Z,10.58
2022-09-03T02:03:22.629Z,10.6
2022-09-03T02:03:42.677Z,10.57
2022-09-03T02:04:02.733Z,10.57
2022-09-03T02:04:22.810Z,10.54
2022-09-03T02:04:42.884Z,10.5
2022-09-03T02:05:02.899Z,10.5
2022-09-03T02:05:23.007Z,10.5
2022-09-03T02:05:43.045Z,10.47
2022-09-03T02:06:03.073Z,10.46
2022-09-03T02:06:23.175Z,10.46
2022-09-03T02:06:43.262Z,10.43
2022-09-03T02:07:03.322Z,10.41
2022-09-03T02:07:23.333Z,10.4
2022-09-03T02:07:43.406Z,10.4
2022-09-03T02:08:03.464Z,10.41
2022-09-03T02:08:23.721Z,10.36
2022-09-03T02:08:43.576Z,10.37
2022-09-03T02:09:03.661Z,10.36
2022-09-03T02:09:23.712Z,10.36
2022-09-03T02:09:43.758Z,10.36
2022-09-03T02:10:03.854Z,10.33
2022-09-03T02:10:23.942Z,10.33
2022-09-03T02:10:43.966Z,10.32
2022-09-03T02:11:04.004Z,10.29
2022-09-03T02:11:24.037Z,10.33
2022-09-03T02:11:44.086Z,10.29
2022-09-03T02:12:04.111Z,10.29
2022-09-03T02:12:24.171Z,10.24
2022-09-03T02:12:44.226Z,10.24
2022-09-03T02:13:04.308Z,10.24
2022-09-03T02:13:24.337Z,10.23
2022-09-03T02:13:44.430Z,10.23
2022-09-03T02:14:04.484Z,10.24
2022-09-03T02:14:24.563Z,10.24
2022-09-03T02:14:44.624Z,10.23
2022-09-03T02:15:04.683Z,10.21
2022-09-03T02:15:24.830Z,10.21
2022-09-03T02:15:44.898Z,10.21
2022-09-03T02:16:04.942Z,10.21
2022-09-03T02:16:24.933Z,10.19
2022-09-03T02:16:45.034Z,10.17
2022-09-03T02:17:05.067Z,10.16
2022-09-03T02:17:25.124Z,10.13
2022-09-03T02:17:45.218Z,10.12
2022-09-03T02:18:05.280Z,10.09
2022-09-03T02:18:25.615Z,10.09
2022-09-03T02:18:45.400Z,10.06
2022-09-03T02:19:05.430Z,10.06
2022-09-03T02:19:25.542Z,10.03
2022-09-03T02:19:45.565Z,10.05
2022-09-03T02:20:05.655Z,10.02
2022-09-03T02:20:25.716Z,10.02
2022-09-03T02:20:45.752Z,10.02
2022-09-03T02:21:05.806Z,9.99
2022-09-03T02:21:25.889Z,9.99
2022-09-03T02:21:45.937Z,9.96
2022-09-03T02:22:05.990Z,9.93
2022-09-03T02:22:26.076Z,9.93
2022-09-03T02:22:46.126Z,9.93
2022-09-03T02:23:06.229Z,9.93
2022-09-03T02:23:28.415Z,9.92
2022-09-03T02:23:46.291Z,9.89
2022-09-03T02:24:06.325Z,9.89
2022-09-03T02:24:26.394Z,9.88
2022-09-03T02:24:46.447Z,9.86
2022-09-03T02:25:06.517Z,9.86
2022-09-03T02:25:26.572Z,9.85
2022-09-03T02:25:46.660Z,9.84
2022-09-03T02:26:06.699Z,9.84
2022-09-03T02:26:26.746Z,9.82
2022-09-03T02:26:46.800Z,9.81
2022-09-03T02:27:06.868Z,9.81
2022-09-03T02:27:26.931Z,9.79
2022-09-03T02:27:46.992Z,9.81
2022-09-03T02:28:17.254Z,9.82
2022-09-03T02:28:27.103Z,9.78
2022-09-03T02:28:47.154Z,9.81
2022-09-03T02:29:07.224Z,9.81
2022-09-03T02:29:27.278Z,9.81
2022-09-03T02:29:47.343Z,9.82
2022-09-03T02:30:07.393Z,9.79
2022-09-03T02:30:27.460Z,9.78
2022-09-03T02:30:47.593Z,9.78
2022-09-03T02:31:07.661Z,9.75
2022-09-03T02:31:27.708Z,9.75
2022-09-03T02:31:47.699Z,9.75
2022-09-03T02:32:07.757Z,9.72
2022-09-03T02:32:27.816Z,9.75
2022-09-03T02:32:47.879Z,9.74
2022-09-03T02:33:07.951Z,9.74
2022-09-03T02:33:28.003Z,9.78
2022-09-03T02:33:48.053Z,9.78
2022-09-03T02:34:08.126Z,9.78
2022-09-03T02:34:28.160Z,9.77
2022-09-03T02:34:48.240Z,9.74
2022-09-03T02:35:08.315Z,9.72
2022-09-03T02:35:28.365Z,9.72
2022-09-03T02:35:48.423Z,9.69
2022-09-03T02:36:08.461Z,9.69
2022-09-03T02:36:28.560Z,9.71
2022-09-03T02:36:48.602Z,9.66
2022-09-03T02:37:08.654Z,9.69
2022-09-03T02:37:28.708Z,9.68
2022-09-03T02:37:48.781Z,9.68
2022-09-03T02:38:08.829Z,9.68
2022-09-03T02:38:28.889Z,9.68
2022-09-03T02:38:48.965Z,9.66
2022-09-03T02:39:09.065Z,9.69
2022-09-03T02:39:29.205Z,9.65
2022-09-03T02:39:49.222Z,9.66
2022-09-03T02:40:09.253Z,9.63
2022-09-03T02:40:29.272Z,9.61
2022-09-03T02:40:49.314Z,9.59
2022-09-03T02:41:09.405Z,9.58
2022-09-03T02:41:29.468Z,9.61
2022-09-03T02:41:49.506Z,9.57
2022-09-03T02:42:09.550Z,9.54
2022-09-03T02:42:29.606Z,9.54
2022-09-03T02:42:49.690Z,9.52
2022-09-03T02:43:09.721Z,9.55
2022-09-03T02:43:29.796Z,9.55
2022-09-03T02:43:49.869Z,9.57
2022-09-03T02:44:09.920Z,9.52
2022-09-03T02:44:29.975Z,9.54
2022-09-03T02:44:50.015Z,9.54
2022-09-03T02:45:10.101Z,9.54
2022-09-03T02:45:30.152Z,9.52
2022-09-03T02:45:50.250Z,9.52
2022-09-03T02:46:10.395Z,9.52
2022-09-03T02:46:30.416Z,9.52
2022-09-03T02:46:50.389Z,9.52
2022-09-03T02:47:10.467Z,9.52
2022-09-03T02:47:30.518Z,9.51
2022-09-03T02:47:50.594Z,9.5
2022-09-03T02:48:10.623Z,9.48
2022-09-03T02:48:30.687Z,9.47
2022-09-03T02:48:50.748Z,9.5
2022-09-03T02:49:10.789Z,9.44
2022-09-03T02:49:30.851Z,9.47
2022-09-03T02:49:50.911Z,9.5
2022-09-03T02:50:10.991Z,9.44
2022-09-03T02:50:31.058Z,9.44
2022-09-03T02:50:51.131Z,9.45
2022-09-03T02:51:14.352Z,9.44
2022-09-03T02:51:31.213Z,9.45
2022-09-03T02:51:51.280Z,9.44
2022-09-03T02:52:11.341Z,9.4
2022-09-03T02:52:31.428Z,9.41
2022-09-03T02:52:51.467Z,9.4
2022-09-03T02:53:11.530Z,9.37
2022-09-03T02:53:31.600Z,9.4
2022-09-03T02:53:51.670Z,9.38
2022-09-03T02:54:11.691Z,9.35
2022-09-03T02:54:31.764Z,9.34
2022-09-03T02:54:51.852Z,9.34
2022-09-03T02:55:11.897Z,9.34
2022-09-03T02:55:31.983Z,9.37
2022-09-03T02:55:52.010Z,9.33
2022-09-03T02:56:12.061Z,9.37
2022-09-03T02:56:32.131Z,9.37
2022-09-03T02:56:52.182Z,9.38
2022-09-03T02:57:12.249Z,9.37
2022-09-03T02:57:32.300Z,9.35
2022-09-03T02:57:52.372Z,9.34
2022-09-03T02:58:12.436Z,9.34
2022-09-03T02:58:32.489Z,9.31
2022-09-03T02:58:52.558Z,9.34
2022-09-03T02:59:12.614Z,9.34
2022-09-03T02:59:32.664Z,9.34
2022-09-03T02:59:52.709Z,9.31
2022-09-03T03:00:12.774Z,9.29
2022-09-03T03:00:32.847Z,9.29
2022-09-03T03:00:52.912Z,9.3
2022-09-03T03:01:23.602Z,9.27
2022-09-03T03:01:33.100Z,9.26
2022-09-03T03:01:53.129Z,9.23
2022-09-03T03:02:13.219Z,9.23
2022-09-03T03:02:33.273Z,9.21
2022-09-03T03:02:53.302Z,9.21
2022-09-03T03:03:13.356Z,9.2
2022-09-03T03:03:33.385Z,9.21
2022-09-03T03:03:53.459Z,9.19
2022-09-03T03:04:13.512Z,9.17
2022-09-03T03:04:33.566Z,9.14
2022-09-03T03:04:53.620Z,9.14
2022-09-03T03:05:13.726Z,9.14
2022-09-03T03:05:33.761Z,9.13
2022-09-03T03:05:53.817Z,9.16
2022-09-03T03:06:13.888Z,9.17
2022-09-03T03:06:33.912Z,9.21
2022-09-03T03:06:53.989Z,9.19
2022-09-03T03:07:14.036Z,9.17
2022-09-03T03:07:34.103Z,9.16
2022-09-03T03:07:54.159Z,9.14
2022-09-03T03:08:14.217Z,9.11
2022-09-03T03:08:34.282Z,9.14
2022-09-03T03:08:54.368Z,9.1
2022-09-03T03:09:14.410Z,9.09
2022-09-03T03:09:34.460Z,9.09
2022-09-03T03:09:54.519Z,9.07
2022-09-03T03:10:14.610Z,9.07
2022-09-03T03:10:34.664Z,9.07
2022-09-03T03:10:54.699Z,9.06
2022-09-03T03:11:14.792Z,9.07
2022-09-03T03:11:34.821Z,9.09
2022-09-03T03:11:54.876Z,9.06
2022-09-03T03:12:14.950Z,9.07
2022-09-03T03:12:35.005Z,9.06
2022-09-03T03:12:55.058Z,9.06
2022-09-03T03:13:15.131Z,9.03
2022-09-03T03:13:35.193Z,9.06
2022-09-03T03:13:55.256Z,9.04
2022-09-03T03:14:15.319Z,9.06
2022-09-03T03:14:35.352Z,9.06
2022-09-03T03:14:55.448Z,9.07
2022-09-03T03:15:15.494Z,9.06
2022-09-03T03:15:35.579Z,9.04
2022-09-03T03:15:55.612Z,9.03
2022-09-03T03:16:15.816Z,9.02
2022-09-03T03:16:35.818Z,9.03
2022-09-03T03:16:55.933Z,9.02
2022-09-03T03:17:15.894Z,9.02
2022-09-03T03:17:35.914Z,9.02
2022-09-03T03:17:55.987Z,9
2022-09-03T03:18:16.148Z,9
2022-09-03T03:18:36.105Z,8.99
2022-09-03T03:18:56.166Z,8.99
2022-09-03T03:19:16.227Z,8.98
2022-09-03T03:19:36.279Z,9
2022-09-03T03:19:56.331Z,9.02
2022-09-03T03:20:16.392Z,9
2022-09-03T03:20:36.458Z,9.02
2022-09-03T03:20:56.521Z,9
2022-09-03T03:21:16.609Z,9
2022-09-03T03:21:36.644Z,8.98
2022-09-03T03:21:56.719Z,8.96
2022-09-03T03:22:16.746Z,8.96
2022-09-03T03:22:36.806Z,8.94
2022-09-03T03:22:56.872Z,8.93
2022-09-03T03:23:16.942Z,8.94
2022-09-03T03:23:36.973Z,8.93
2022-09-03T03:23:57.022Z,8.93
2022-09-03T03:24:17.113Z,8.9
2022-09-03T03:24:37.165Z,8.9
2022-09-03T03:24:57.219Z,8.93
2022-09-03T03:25:17.280Z,8.93
2022-09-03T03:25:37.360Z,8.93
2022-09-03T03:25:57.401Z,8.98
2022-09-03T03:26:17.487Z,8.96
2022-09-03T03:26:37.533Z,8.98
2022-09-03T03:26:57.597Z,8.99
2022-09-03T03:27:17.636Z,9
2022-09-03T03:27:37.709Z,9.02
2022-09-03T03:27:57.767Z,9.03
2022-09-03T03:28:17.816Z,9.04
2022-09-03T03:28:37.869Z,9.07
2022-09-03T03:28:57.938Z,9.07
2022-09-03T03:29:17.993Z,9.1
2022-09-03T03:29:38.060Z,9.13
2022-09-03T03:29:58.124Z,9.16
2022-09-03T03:30:18.225Z,9.17
2022-09-03T03:30:38.266Z,9.19
2022-09-03T03:30:58.369Z,9.21
2022-09-03T03:31:18.546Z,9.2
2022-09-03T03:31:38.433Z,9.23
2022-09-03T03:31:58.475Z,9.23
2022-09-03T03:32:18.541Z,9.24
2022-09-03T03:32:38.593Z,9.23
2022-09-03T03:32:58.661Z,9.3
2022-09-03T03:33:18.702Z,9.33
2022-09-03T03:33:38.753Z,9.33
2022-09-03T03:33:58.890Z,9.31
2022-09-03T03:34:18.902Z,9.33
2022-09-03T03:34:38.958Z,9.35
2022-09-03T03:34:58.998Z,9.3
2022-09-03T03:35:19.069Z,9.35
2022-09-03T03:35:39.135Z,9.34
2022-09-03T03:35:59.193Z,9.37
2022-09-03T03:36:19.256Z,9.33
2022-09-03T03:36:39.309Z,9.34
2022-09-03T03:36:59.381Z,9.31
2022-09-03T03:37:19.441Z,9.31
2022-09-03T03:37:39.487Z,9.29
2022-09-03T03:37:59.571Z,9.29
2022-09-03T03:38:19.687Z,9.27
2022-09-03T03:38:39.711Z,9.29
2022-09-03T03:38:59.761Z,9.3
2022-09-03T03:39:19.836Z,9.26
2022-09-03T03:39:39.915Z,9.29
2022-09-03T03:39:59.963Z,9.26
2022-09-03T03:40:19.955Z,9.27
2022-09-03T03:40:40.042Z,9.26
2022-09-03T03:41:00.085Z,9.24
2022-09-03T03:41:20.125Z,9.24
2022-09-03T03:41:40.208Z,9.24
2022-09-03T03:42:00.257Z,9.26
2022-09-03T03:42:20.332Z,9.24
2022-09-03T03:42:40.389Z,9.24
2022-09-03T03:43:00.458Z,9.27
2022-09-03T03:43:20.505Z,9.24
2022-09-03T03:43:40.568Z,9.26
2022-09-03T03:44:00.633Z,9.26
2022-09-03T03:44:20.721Z,9.26
2022-09-03T03:44:40.740Z,9.24
2022-09-03T03:45:00.838Z,9.24
2022-09-03T03:45:20.883Z,9.27
2022-09-03T03:45:41.027Z,9.27
2022-09-03T03:46:01.006Z,9.3
2022-09-03T03:46:21.163Z,9.33
2022-09-03T03:46:41.106Z,9.34
2022-09-03T03:47:01.164Z,9.34
2022-09-03T03:47:21.251Z,9.35
2022-09-03T03:47:41.353Z,9.37
2022-09-03T03:48:01.342Z,9.4
2022-09-03T03:48:21.414Z,9.4
2022-09-03T03:48:41.485Z,9.38
2022-09-03T03:49:01.523Z,9.4
2022-09-03T03:49:21.567Z,9.41
2022-09-03T03:49:41.633Z,9.41
2022-09-03T03:50:01.720Z,9.41
2022-09-03T03:50:21.792Z,9.41
2022-09-03T03:50:41.820Z,9.44
2022-09-03T03:51:01.882Z,9.4
2022-09-03T03:51:21.924Z,9.41
2022-09-03T03:51:42.010Z,9.4
2022-09-03T03:52:02.074Z,9.45
2022-09-03T03:52:22.112Z,9.45
2022-09-03T03:52:42.183Z,9.47
2022-09-03T03:53:02.222Z,9.48
2022-09-03T03:53:22.303Z,9.5
2022-09-03T03:53:42.361Z,9.52
2022-09-03T03:54:05.230Z,9.57
2022-09-03T03:54:22.465Z,9.58
2022-09-03T03:54:42.546Z,9.62
2022-09-03T03:55:02.589Z,9.62
2022-09-03T03:55:22.645Z,9.66
2022-09-03T03:55:42.705Z,9.66
2022-09-03T03:56:02.787Z,9.65
2022-09-03T03:56:22.834Z,9.65
2022-09-03T03:56:42.911Z,9.68
2022-09-03T03:57:03.004Z,9.68
2022-09-03T03:57:23.066Z,9.71
2022-09-03T03:57:43.114Z,9.71
2022-09-03T03:58:03.164Z,9.74
2022-09-03T03:58:23.418Z,9.75
2022-09-03T03:58:43.270Z,9.78
2022-09-03T03:59:03.339Z,9.78
2022-09-03T03:59:23.410Z,9.79
2022-09-03T03:59:43.486Z,9.79
2022-09-03T04:00:03.602Z,9.85
2022-09-03T04:00:24.703Z,9.86
2022-09-03T04:00:43.653Z,9.89
2022-09-03T04:01:03.762Z,9.89
2022-09-03T04:01:23.815Z,9.9
2022-09-03T04:01:43.884Z,9.93
2022-09-03T04:02:03.986Z,9.93
2022-09-03T04:02:24.082Z,9.96
2022-09-03T04:02:44.063Z,9.96
2022-09-03T04:03:04.070Z,9.96
2022-09-03T04:03:24.110Z,9.99
2022-09-03T04:03:44.187Z,10
2022-09-03T04:04:04.269Z,10
2022-09-03T04:04:24.296Z,10.05
2022-09-03T04:04:44.358Z,10.03
2022-09-03T04:05:04.427Z,10.06
2022-09-03T04:05:24.492Z,10.07
2022-09-03T04:05:48.428Z,10.06
2022-09-03T04:06:04.609Z,10.07
2022-09-03T04:06:24.672Z,10.07
2022-09-03T04:06:44.717Z,10.09
2022-09-03T04:07:04.826Z,10.07
2022-09-03T04:07:24.838Z,10.13
2022-09-03T04:07:44.896Z,10.13
2022-09-03T04:08:04.970Z,10.16
2022-09-03T04:08:25.151Z,10.19
2022-09-03T04:08:45.083Z,10.2
2022-09-03T04:09:05.149Z,10.21
2022-09-03T04:09:25.194Z,10.2
2022-09-03T04:09:45.247Z,10.21
2022-09-03T04:10:05.366Z,10.26
2022-09-03T04:10:25.402Z,10.26
2022-09-03T04:10:45.446Z,10.3
2022-09-03T04:11:05.507Z,10.33
2022-09-03T04:11:25.555Z,10.33
2022-09-03T04:11:45.636Z,10.36
2022-09-03T04:12:05.679Z,10.36
2022-09-03T04:12:25.738Z,10.39
2022-09-03T04:12:45.807Z,10.41
2022-09-03T04:13:05.847Z,10.43
2022-09-03T04:13:25.932Z,10.47
2022-09-03T04:13:45.992Z,10.48
2022-09-03T04:14:06.045Z,10.5
2022-09-03T04:14:26.114Z,10.53
2022-09-03T04:14:46.153Z,10.53
2022-09-03T04:15:06.211Z,10.57
2022-09-03T04:15:26.273Z,10.56
2022-09-03T04:15:46.434Z,10.56
2022-09-03T04:16:06.395Z,10.57
2022-09-03T04:16:26.624Z,10.56
2022-09-03T04:16:46.621Z,10.53
2022-09-03T04:17:06.561Z,10.53
2022-09-03T04:17:26.614Z,10.54
2022-09-03T04:17:46.722Z,10.54
2022-09-03T04:18:06.793Z,10.53
2022-09-03T04:18:26.826Z,10.51
2022-09-03T04:18:46.887Z,10.54
2022-09-03T04:19:06.921Z,10.56
2022-09-03T04:19:26.997Z,10.54
2022-09-03T04:19:47.042Z,10.6
2022-09-03T04:20:07.112Z,10.57
2022-09-03T04:20:27.172Z,10.6
2022-09-03T04:20:47.227Z,10.56
2022-09-03T04:21:07.295Z,10.57
2022-09-03T04:21:27.884Z,10.57
2022-09-03T04:21:47.452Z,10.57
2022-09-03T04:22:07.490Z,10.57
2022-09-03T04:22:27.548Z,10.57